PGT2541 LTAI-LTFJ
Flight info
| Callsign | PGT2541 |
|---|---|
| Flight time | N/A |
| Altitude | 36000 |
| Route | EKSEN UL610 ETAMP |
| Aircraft | A21N/M-SDE3FGHIRWY/LB1 |
Departure
| Time | 2026-05-07 14:35 |
|---|---|
| Airport | Antalya International Airport (LTAI) |
Arrival
| Time | N/A |
|---|---|
| Airport | Istanbul Sabiha Gökçen International Airport (LTFJ) |
| Time | Latitude | Longitude | Altitude | Speed | Heading |
|---|---|---|---|---|---|
| 2026-05-07 14:05 | 36.91205 | 30.80047 | 172 ft | 0 kts | 96° |
| 2026-05-07 14:21 | 36.91205 | 30.80046 | 173 ft | 0 kts | 96° |
| 2026-05-07 14:21 | 36.91206 | 30.80031 | 172 ft | 2 kts | 97° |
| 2026-05-07 14:21 | 36.91208 | 30.80016 | 171 ft | 1 kts | 99° |
| 2026-05-07 14:22 | 36.91206 | 30.80002 | 171 ft | 2 kts | 63° |
| 2026-05-07 14:22 | 36.91202 | 30.79992 | 170 ft | 1 kts | 95° |
| 2026-05-07 14:22 | 36.91208 | 30.79974 | 170 ft | 2 kts | 141° |
| 2026-05-07 14:22 | 36.91219 | 30.79968 | 170 ft | 0 kts | 182° |
| 2026-05-07 14:23 | 36.91226 | 30.79969 | 170 ft | 1 kts | 188° |
| 2026-05-07 14:23 | 36.91228 | 30.79969 | 170 ft | 0 kts | 186° |
| 2026-05-07 14:26 | 36.91225 | 30.79969 | 170 ft | 0 kts | 186° |
| 2026-05-07 14:26 | 36.91211 | 30.79967 | 169 ft | 4 kts | 186° |
| 2026-05-07 14:26 | 36.91188 | 30.79940 | 168 ft | 7 kts | 258° |
| 2026-05-07 14:27 | 36.91184 | 30.79876 | 166 ft | 8 kts | 221° |
| 2026-05-07 14:27 | 36.91120 | 30.79865 | 166 ft | 9 kts | 186° |
| 2026-05-07 14:27 | 36.91057 | 30.79855 | 167 ft | 9 kts | 187° |
| 2026-05-07 14:27 | 36.90989 | 30.79845 | 168 ft | 9 kts | 186° |
| 2026-05-07 14:28 | 36.90925 | 30.79836 | 169 ft | 8 kts | 188° |
| 2026-05-07 14:28 | 36.90895 | 30.79781 | 170 ft | 12 kts | 270° |
| 2026-05-07 14:28 | 36.90866 | 30.79693 | 170 ft | 11 kts | 185° |
| 2026-05-07 14:28 | 36.90780 | 30.79689 | 172 ft | 17 kts | 185° |
| 2026-05-07 14:29 | 36.90632 | 30.79667 | 174 ft | 21 kts | 188° |
| 2026-05-07 14:29 | 36.90496 | 30.79651 | 177 ft | 15 kts | 185° |
| 2026-05-07 14:29 | 36.90411 | 30.79670 | 177 ft | 9 kts | 106° |
| 2026-05-07 14:29 | 36.90405 | 30.79761 | 177 ft | 11 kts | 98° |
| 2026-05-07 14:30 | 36.90392 | 30.79861 | 177 ft | 11 kts | 99° |
| 2026-05-07 14:30 | 36.90380 | 30.79965 | 177 ft | 12 kts | 97° |
| 2026-05-07 14:30 | 36.90370 | 30.80101 | 179 ft | 18 kts | 94° |
| 2026-05-07 14:30 | 36.90357 | 30.80268 | 180 ft | 19 kts | 97° |
| 2026-05-07 14:31 | 36.90343 | 30.80431 | 180 ft | 18 kts | 96° |
| 2026-05-07 14:31 | 36.90327 | 30.80590 | 178 ft | 19 kts | 98° |
| 2026-05-07 14:31 | 36.90318 | 30.80755 | 176 ft | 16 kts | 76° |
| 2026-05-07 14:31 | 36.90411 | 30.80807 | 177 ft | 15 kts | 12° |
| 2026-05-07 14:32 | 36.90519 | 30.80826 | 177 ft | 15 kts | 8° |
| 2026-05-07 14:32 | 36.90620 | 30.80843 | 179 ft | 14 kts | 6° |
| 2026-05-07 14:32 | 36.90771 | 30.80856 | 180 ft | 38 kts | 3° |
| 2026-05-07 14:32 | 36.90946 | 30.80880 | 182 ft | 15 kts | 10° |
| 2026-05-07 14:33 | 36.90990 | 30.80975 | 181 ft | 14 kts | 96° |
| 2026-05-07 14:33 | 36.90968 | 30.81096 | 180 ft | 14 kts | 139° |
| 2026-05-07 14:33 | 36.90932 | 30.81108 | 180 ft | 0 kts | 181° |
| 2026-05-07 14:33 | 36.90917 | 30.81109 | 180 ft | 3 kts | 178° |
| 2026-05-07 14:34 | 36.90892 | 30.81107 | 180 ft | 4 kts | 186° |
| 2026-05-07 14:34 | 36.90840 | 30.81100 | 180 ft | 26 kts | 187° |
| 2026-05-07 14:34 | 36.90373 | 30.81039 | 178 ft | 105 kts | 185° |
| 2026-05-07 14:34 | 36.89422 | 30.80905 | 186 ft | 165 kts | 186° |
| 2026-05-07 14:35 | 36.88182 | 30.80737 | 500 ft | 192 kts | 185° |
| 2026-05-07 14:35 | 36.86794 | 30.80598 | 1098 ft | 209 kts | 180° |
| 2026-05-07 14:35 | 36.85274 | 30.80814 | 1673 ft | 231 kts | 165° |
| 2026-05-07 14:35 | 36.83724 | 30.81311 | 2677 ft | 230 kts | 167° |
| 2026-05-07 14:36 | 36.82194 | 30.81706 | 3730 ft | 226 kts | 168° |
| 2026-05-07 14:36 | 36.80666 | 30.82089 | 4535 ft | 231 kts | 166° |
| 2026-05-07 14:36 | 36.79118 | 30.82690 | 5289 ft | 238 kts | 156° |
| 2026-05-07 14:36 | 36.77544 | 30.83589 | 5875 ft | 255 kts | 153° |
| 2026-05-07 14:37 | 36.75956 | 30.84571 | 6415 ft | 272 kts | 151° |
| 2026-05-07 14:37 | 36.73612 | 30.88263 | 7748 ft | 284 kts | 96° |
| 2026-05-07 14:37 | 36.73432 | 30.90734 | 8698 ft | 284 kts | 91° |
| 2026-05-07 14:38 | 36.73282 | 30.93195 | 9554 ft | 287 kts | 92° |
| 2026-05-07 14:38 | 36.73116 | 30.95564 | 10326 ft | 291 kts | 92° |
| 2026-05-07 14:38 | 36.72912 | 30.98258 | 10892 ft | 306 kts | 92° |
| 2026-05-07 14:38 | 36.72702 | 31.00927 | 11300 ft | 324 kts | 93° |
| 2026-05-07 14:39 | 36.72493 | 31.03819 | 11681 ft | 341 kts | 89° |
| 2026-05-07 14:39 | 36.72827 | 31.06781 | 11973 ft | 353 kts | 69° |
| 2026-05-07 14:39 | 36.74004 | 31.09520 | 12286 ft | 365 kts | 50° |
| 2026-05-07 14:39 | 36.75919 | 31.11642 | 12787 ft | 370 kts | 30° |
| 2026-05-07 14:40 | 36.78281 | 31.12813 | 13463 ft | 370 kts | 11° |
| 2026-05-07 14:40 | 36.80854 | 31.13221 | 14208 ft | 372 kts | 5° |
| 2026-05-07 14:40 | 36.83420 | 31.13400 | 14822 ft | 375 kts | 355° |
| 2026-05-07 14:40 | 36.85975 | 31.12727 | 15481 ft | 377 kts | 340° |
| 2026-05-07 14:41 | 36.88300 | 31.11176 | 16201 ft | 379 kts | 325° |
| 2026-05-07 14:41 | 36.90403 | 31.09164 | 16911 ft | 380 kts | 322° |
| 2026-05-07 14:41 | 36.92480 | 31.07133 | 17562 ft | 382 kts | 322° |
| 2026-05-07 14:41 | 36.94596 | 31.05059 | 18189 ft | 385 kts | 322° |
| 2026-05-07 14:42 | 36.96697 | 31.03000 | 18772 ft | 388 kts | 322° |
| 2026-05-07 14:42 | 36.98853 | 31.00890 | 19401 ft | 390 kts | 322° |
| 2026-05-07 14:42 | 37.01000 | 30.98790 | 20015 ft | 392 kts | 322° |
| 2026-05-07 14:42 | 37.03149 | 30.96688 | 20570 ft | 394 kts | 322° |
| 2026-05-07 14:43 | 37.05294 | 30.94589 | 21137 ft | 396 kts | 322° |
| 2026-05-07 14:43 | 37.07502 | 30.92426 | 21696 ft | 398 kts | 322° |
| 2026-05-07 14:43 | 37.09700 | 30.90270 | 22227 ft | 400 kts | 323° |
| 2026-05-07 14:43 | 37.11927 | 30.88086 | 22735 ft | 403 kts | 323° |
| 2026-05-07 14:44 | 37.14127 | 30.85929 | 23234 ft | 405 kts | 322° |
| 2026-05-07 14:44 | 37.16395 | 30.83703 | 23730 ft | 408 kts | 323° |
| 2026-05-07 14:44 | 37.18642 | 30.81493 | 24202 ft | 411 kts | 323° |
| 2026-05-07 14:44 | 37.20893 | 30.79279 | 24639 ft | 413 kts | 323° |
| 2026-05-07 14:45 | 37.23175 | 30.77033 | 25063 ft | 416 kts | 322° |
| 2026-05-07 14:45 | 37.25539 | 30.74867 | 25480 ft | 418 kts | 328° |
| 2026-05-07 14:45 | 37.28129 | 30.73192 | 25897 ft | 420 kts | 336° |
| 2026-05-07 14:45 | 37.30916 | 30.72034 | 26397 ft | 420 kts | 345° |
| 2026-05-07 14:46 | 37.33807 | 30.71356 | 26981 ft | 418 kts | 349° |
| 2026-05-07 14:46 | 37.36731 | 30.70789 | 27551 ft | 416 kts | 349° |
| 2026-05-07 14:46 | 37.39621 | 30.70322 | 28049 ft | 415 kts | 352° |
| 2026-05-07 14:46 | 37.42509 | 30.70037 | 28569 ft | 414 kts | 354° |
| 2026-05-07 14:47 | 37.45381 | 30.69829 | 29070 ft | 412 kts | 354° |
| 2026-05-07 14:47 | 37.48246 | 30.69637 | 29554 ft | 411 kts | 354° |
| 2026-05-07 14:47 | 37.51115 | 30.69446 | 30007 ft | 410 kts | 354° |
| 2026-05-07 14:47 | 37.53945 | 30.69255 | 30454 ft | 408 kts | 354° |
| 2026-05-07 14:48 | 37.56788 | 30.69064 | 30937 ft | 406 kts | 354° |
| 2026-05-07 14:48 | 37.59626 | 30.68879 | 31421 ft | 404 kts | 354° |
| 2026-05-07 14:48 | 37.62441 | 30.68705 | 31876 ft | 402 kts | 354° |
| 2026-05-07 14:48 | 37.65217 | 30.68533 | 32288 ft | 401 kts | 354° |
| 2026-05-07 14:49 | 37.67989 | 30.68362 | 32667 ft | 400 kts | 354° |
| 2026-05-07 14:49 | 37.70744 | 30.68188 | 33037 ft | 399 kts | 354° |
| 2026-05-07 14:49 | 37.73510 | 30.68014 | 33395 ft | 398 kts | 353° |
| 2026-05-07 14:49 | 37.76284 | 30.67840 | 33765 ft | 396 kts | 354° |
| 2026-05-07 14:50 | 37.79030 | 30.67666 | 34112 ft | 395 kts | 353° |
| 2026-05-07 14:50 | 37.81779 | 30.67435 | 34446 ft | 392 kts | 351° |
| 2026-05-07 14:50 | 37.84497 | 30.67028 | 34682 ft | 391 kts | 348° |
| 2026-05-07 14:50 | 37.87182 | 30.66444 | 34833 ft | 392 kts | 346° |
| 2026-05-07 14:51 | 37.89859 | 30.65678 | 34980 ft | 393 kts | 343° |
| 2026-05-07 14:51 | 37.92493 | 30.64738 | 35124 ft | 393 kts | 340° |
| 2026-05-07 14:51 | 37.95102 | 30.63614 | 35279 ft | 394 kts | 338° |
| 2026-05-07 14:51 | 37.97646 | 30.62330 | 35450 ft | 394 kts | 335° |
| 2026-05-07 14:52 | 38.00171 | 30.60969 | 35627 ft | 394 kts | 335° |
| 2026-05-07 14:52 | 38.02712 | 30.59586 | 35792 ft | 395 kts | 335° |
| 2026-05-07 14:52 | 38.05242 | 30.58199 | 35920 ft | 396 kts | 335° |
| 2026-05-07 14:52 | 38.07772 | 30.56815 | 36052 ft | 397 kts | 335° |
| 2026-05-07 14:53 | 38.10317 | 30.55418 | 36186 ft | 398 kts | 335° |
| 2026-05-07 14:53 | 38.12868 | 30.54017 | 36202 ft | 399 kts | 335° |
| 2026-05-07 14:53 | 38.17964 | 30.51215 | 36207 ft | 400 kts | 335° |
| 2026-05-07 14:54 | 38.23101 | 30.48389 | 36208 ft | 400 kts | 335° |
| 2026-05-07 14:54 | 38.28131 | 30.45620 | 36202 ft | 400 kts | 335° |
| 2026-05-07 14:55 | 38.33077 | 30.42892 | 36201 ft | 398 kts | 335° |
| 2026-05-07 14:55 | 38.38191 | 30.40069 | 36200 ft | 399 kts | 335° |
| 2026-05-07 14:56 | 38.43297 | 30.37242 | 36202 ft | 400 kts | 335° |